Terminal Aerodrome Forecast
Issued by NWS

Home | Current Version | Previous Version | Text Only | Print | Product List | Glossary On
Versions: 1 2 3 4 5 6 7 8 9 10 11 12 13 14
000
FTUS45 KGJT 262339
TAFTEX
TAF
KTEX 262339Z 2700/2724 18013G25KT P6SM FEW200
     FM270300 20009KT P6SM FEW200
     FM270800 18005KT P6SM FEW150
     FM271600 26005KT P6SM SCT200
     FM271800 29010G15KT P6SM BKN100=

USA.gov is the U.S. government's official web portal to all federal, state and local government web resources and services.